Time;durP1;ratioP1;P1;durP2;ratioP2;P2;SDS_P1;SDS_P2;PMS_P1;PMS_P2;Temp;Humidity;BMP_temperature;BMP_pressure;BME280_temperature;BME280_humidity;BME280_pressure;Samples;Min_cycle;Max_cycle;Signal;HPM_P1;HPM_P2
2022/06/22 00:02:28;;;;;;;11.65;6.40;;;15.90;99.90;;;;;;5009660;28;20056;-71
2022/06/22 00:05:00;;;;;;;8.82;6.78;;;17.10;99.90;;;;;;5009749;28;20080;-71
2022/06/22 00:07:32;;;;;;;11.13;7.07;;;15.90;99.90;;;;;;5009640;28;20033;-72
2022/06/22 00:10:20;;;;;;;10.23;7.18;;;15.90;99.90;;;;;;5009620;28;20101;-71
2022/06/22 00:12:55;;;;;;;8.32;6.18;;;15.80;99.90;;;;;;5009649;28;20127;-71
2022/06/22 00:15:52;;;;;;;10.35;7.28;;;15.70;99.90;;;;;;5009237;28;20502;-71
2022/06/22 00:18:32;;;;;;;7.25;6.25;;;15.60;99.90;;;;;;5009363;28;20026;-71
2022/06/22 00:21:05;;;;;;;8.90;7.00;;;15.60;99.90;;;;;;5009520;28;20479;-71
2022/06/22 00:23:35;;;;;;;6.28;5.68;;;15.40;99.90;;;;;;5009722;28;20049;-71
2022/06/22 00:26:24;;;;;;;11.43;6.93;;;15.60;99.90;;;;;;5009013;28;20383;-71
2022/06/22 00:29:13;;;;;;;8.70;6.05;;;15.50;99.90;;;;;;5001837;28;20041;-71
2022/06/22 00:31:49;;;;;;;8.10;5.82;;;15.60;99.90;;;;;;5001649;28;20510;-71
2022/06/22 00:34:27;;;;;;;8.43;6.30;;;15.10;99.90;;;;;;5009183;28;20057;-71
2022/06/22 00:37:02;;;;;;;7.13;6.43;;;15.20;99.90;;;;;;5009557;28;20105;-71
2022/06/22 00:39:30;;;;;;;10.18;6.90;;;15.20;99.90;;;;;;5008862;28;20025;-70
2022/06/22 00:42:18;;;;;;;10.73;6.65;;;15.00;99.90;;;;;;5009679;28;20666;-71
2022/06/22 00:44:49;;;;;;;9.60;6.88;;;15.10;99.90;;;;;;5009415;28;20021;-71
2022/06/22 00:47:31;;;;;;;12.02;8.20;;;15.00;99.90;;;;;;5009294;28;20033;-72
2022/06/22 00:50:21;;;;;;;14.98;8.13;;;14.90;99.90;;;;;;5013352;28;20034;-71
2022/06/22 00:52:52;;;;;;;12.70;7.72;;;15.10;99.90;;;;;;5012847;28;20124;-71
2022/06/22 00:55:42;;;;;;;11.57;7.53;;;14.90;99.90;;;;;;5012625;28;20375;-71
2022/06/22 00:58:08;;;;;;;10.73;7.32;;;15.00;99.90;;;;;;5027933;28;20471;-71
2022/06/22 01:00:38;;;;;;;11.30;8.75;;;14.90;99.90;;;;;;5013049;28;20030;-71
2022/06/22 01:03:24;;;;;;;12.57;8.00;;;14.80;99.90;;;;;;5011570;28;20032;-71
2022/06/22 01:06:32;;;;;;;11.93;7.07;;;14.90;99.90;;;;;;5013294;28;20137;-71
2022/06/22 01:09:38;;;;;;;8.20;7.07;;;14.50;99.90;;;;;;4951746;29;20027;-71
2022/06/22 01:12:28;;;;;;;10.75;7.55;;;14.80;99.90;;;;;;4951608;29;20039;-71
2022/06/22 01:14:57;;;;;;;11.77;9.23;;;14.80;99.90;;;;;;4952381;29;20114;-71
2022/06/22 01:17:47;;;;;;;13.00;8.20;;;14.80;99.90;;;;;;4951859;29;20125;-71
2022/06/22 01:20:18;;;;;;;12.70;10.57;;;14.70;99.90;;;;;;4951982;29;20031;-71
2022/06/22 01:22:44;;;;;;;16.50;8.75;;;14.80;99.90;;;;;;4949848;29;20035;-71
2022/06/22 01:25:29;;;;;;;12.75;8.25;;;14.50;99.90;;;;;;4962262;28;20127;-71
2022/06/22 01:27:54;;;;;;;9.60;8.65;;;14.90;99.90;;;;;;4971056;28;20097;-70
2022/06/22 01:30:37;;;;;;;15.48;8.48;;;14.80;99.90;;;;;;4970905;28;20508;-71
2022/06/22 01:33:21;;;;;;;12.45;8.35;;;14.40;99.90;;;;;;4970798;28;20030;-71
2022/06/22 01:35:57;;;;;;;13.13;9.60;;;14.80;99.90;;;;;;4957071;28;20051;-71
2022/06/22 01:38:26;;;;;;;9.73;8.77;;;14.60;99.90;;;;;;4970442;28;20489;-71
2022/06/22 01:41:22;;;;;;;12.85;9.63;;;14.80;99.90;;;;;;4970796;28;20027;-71
2022/06/22 01:44:13;;;;;;;10.05;8.43;;;14.50;99.90;;;;;;5008372;28;20041;-71
2022/06/22 01:47:23;;;;;;;12.20;9.23;;;14.10;99.90;;;;;;5010586;28;20068;-70
2022/06/22 01:50:06;;;;;;;13.25;8.57;;;14.40;99.90;;;;;;4961887;28;20031;-71
2022/06/22 01:53:19;;;;;;;13.48;9.07;;;14.40;99.90;;;;;;4959790;28;20069;-71
2022/06/22 01:56:03;;;;;;;15.73;8.98;;;14.50;99.90;;;;;;4953956;28;20046;-71
2022/06/22 01:58:34;;;;;;;;;;;14.50;99.90;;;;;;4964374;28;20043;-71
2022/06/22 02:01:16;;;;;;;13.07;8.07;;;14.60;99.90;;;;;;4966710;28;19910;-70
2022/06/22 02:03:57;;;;;;;11.85;9.65;;;14.60;99.90;;;;;;4962241;28;20110;-71
2022/06/22 02:09:23;;;;;;;10.77;8.98;;;14.40;99.90;;;;;;4950671;29;20093;-71
2022/06/22 02:12:18;;;;;;;10.25;9.30;;;14.40;99.90;;;;;;4951466;29;20035;-71
2022/06/22 02:14:43;;;;;;;12.25;10.13;;;14.40;99.90;;;;;;4951073;29;20463;-71
2022/06/22 02:17:13;;;;;;;14.85;10.13;;;14.40;99.90;;;;;;4934693;29;20070;-71
2022/06/22 02:19:41;;;;;;;17.50;9.25;;;14.60;99.90;;;;;;4951089;29;20492;-71
2022/06/22 02:22:12;;;;;;;12.60;9.38;;;14.20;99.90;;;;;;4950457;29;20380;-71
2022/06/22 02:24:45;;;;;;;17.58;9.82;;;14.40;99.90;;;;;;4992175;28;20440;-71
2022/06/22 02:27:15;;;;;;;15.73;10.00;;;14.00;99.90;;;;;;5011263;28;20037;-71
2022/06/22 02:29:48;;;;;;;11.35;9.15;;;14.30;99.90;;;;;;5011587;28;20022;-71
2022/06/22 02:32:20;;;;;;;11.20;9.60;;;14.20;99.90;;;;;;5011031;28;20058;-72
2022/06/22 02:34:51;;;;;;;9.18;8.20;;;14.20;99.90;;;;;;5010922;28;20025;-71
2022/06/22 02:37:19;;;;;;;12.07;9.38;;;14.20;99.90;;;;;;5011228;28;20099;-71
2022/06/22 02:39:53;;;;;;;13.48;8.82;;;14.10;99.90;;;;;;5011354;28;20561;-71
2022/06/22 02:45:06;;;;;;;20.23;13.25;;;14.10;99.90;;;;;;5011475;28;20069;-71
2022/06/22 02:47:45;;;;;;;18.45;12.02;;;14.10;99.90;;;;;;5011223;28;20029;-71
2022/06/22 02:50:38;;;;;;;16.85;12.70;;;14.10;99.90;;;;;;5010488;28;20021;-71
2022/06/22 02:53:23;;;;;;;17.08;12.88;;;14.00;99.90;;;;;;5011235;28;20048;-71
2022/06/22 02:55:50;;;;;;;19.83;12.40;;;13.90;99.90;;;;;;5011221;28;20037;-71
2022/06/22 02:58:30;;;;;;;15.60;11.30;;;14.00;99.90;;;;;;5010460;28;20025;-71
2022/06/22 03:00:59;;;;;;;12.98;10.75;;;13.90;99.90;;;;;;5011140;28;20057;-71
2022/06/22 03:03:25;;;;;;;13.45;11.02;;;;;;;;;;5010114;28;20014;-71
2022/06/22 03:05:54;;;;;;;13.25;11.73;;;13.80;99.90;;;;;;5010888;28;20105;-71
2022/06/22 03:08:21;;;;;;;16.88;10.80;;;;;;;;;;5009215;28;20026;-71
2022/06/22 03:10:49;;;;;;;14.57;9.50;;;13.90;99.90;;;;;;5010238;28;20058;-71
2022/06/22 03:13:22;;;;;;;17.55;11.13;;;13.90;99.90;;;;;;5009843;28;20411;-71
2022/06/22 03:15:48;;;;;;;13.48;12.00;;;13.80;99.90;;;;;;5010614;28;20061;-70
2022/06/22 03:18:24;;;;;;;12.93;10.23;;;13.90;99.90;;;;;;5009961;28;20065;-71
2022/06/22 03:21:01;;;;;;;12.55;11.13;;;13.80;99.90;;;;;;5010614;28;20505;-71
2022/06/22 03:23:29;;;;;;;16.50;13.48;;;14.00;99.90;;;;;;5009869;28;20057;-71
2022/06/22 03:26:25;;;;;;;14.30;11.25;;;13.90;99.90;;;;;;5009802;28;20462;-71
2022/06/22 03:29:02;;;;;;;15.77;10.95;;;13.80;99.90;;;;;;5010129;28;20061;-71
2022/06/22 03:31:53;;;;;;;15.80;14.18;;;13.90;99.90;;;;;;5010008;28;20030;-71
2022/06/22 03:34:25;;;;;;;15.48;13.52;;;13.70;99.90;;;;;;5008810;28;20049;-71
2022/06/22 03:37:04;;;;;;;13.63;12.23;;;13.40;99.90;;;;;;5010212;28;20360;-71
2022/06/22 03:39:33;;;;;;;15.20;11.25;;;13.70;99.90;;;;;;5010174;28;20018;-71
2022/06/22 03:42:24;;;;;;;12.65;10.60;;;13.80;99.90;;;;;;5008871;28;20030;-71
2022/06/22 03:45:13;;;;;;;14.80;11.30;;;13.70;99.90;;;;;;5009676;28;20402;-71
2022/06/22 03:47:49;;;;;;;14.70;10.05;;;13.60;99.90;;;;;;5009520;28;20025;-71
2022/06/22 03:50:21;;;;;;;13.52;11.82;;;13.60;99.90;;;;;;5009862;28;20018;-71
2022/06/22 03:52:53;;;;;;;13.70;11.15;;;13.60;99.90;;;;;;5009773;28;20026;-71
2022/06/22 03:55:27;;;;;;;12.55;10.77;;;13.50;99.90;;;;;;5009758;28;20060;-70
2022/06/22 03:57:55;;;;;;;16.42;12.27;;;13.50;99.90;;;;;;5010086;28;20029;-71
2022/06/22 04:00:22;;;;;;;13.68;11.23;;;13.50;99.90;;;;;;5009705;28;20399;-71
2022/06/22 04:02:49;;;;;;;13.63;12.18;;;13.50;99.90;;;;;;5009447;28;20046;-71
2022/06/22 04:05:22;;;;;;;12.18;10.98;;;13.60;99.90;;;;;;5009393;28;20475;-71
2022/06/22 04:07:48;;;;;;;11.82;10.50;;;13.40;99.90;;;;;;5009629;28;20475;-71
2022/06/22 04:10:45;;;;;;;13.52;10.35;;;13.30;99.90;;;;;;5009455;28;20491;-71
2022/06/22 04:13:19;;;;;;;13.80;10.18;;;13.40;99.90;;;;;;5009123;28;20128;-71
2022/06/22 04:15:49;;;;;;;12.85;10.63;;;13.40;99.90;;;;;;5009862;28;20037;-71
2022/06/22 04:18:20;;;;;;;12.20;10.73;;;13.40;99.90;;;;;;5008691;28;20104;-71
2022/06/22 04:21:00;;;;;;;17.90;11.13;;;13.40;99.90;;;;;;5009675;28;20034;-71
2022/06/22 04:23:51;;;;;;;12.82;10.65;;;13.50;99.90;;;;;;5009475;28;20025;-71
2022/06/22 04:26:20;;;;;;;13.45;10.75;;;13.50;99.90;;;;;;5009411;28;20048;-71
2022/06/22 04:28:50;;;;;;;12.63;11.32;;;13.60;99.90;;;;;;5009622;28;20022;-71
2022/06/22 04:31:26;;;;;;;14.45;11.75;;;13.70;99.90;;;;;;5008821;28;20026;-71
2022/06/22 04:33:58;;;;;;;14.30;10.45;;;13.70;99.90;;;;;;5009728;28;20034;-71
2022/06/22 04:36:31;;;;;;;12.88;10.55;;;13.80;99.90;;;;;;5009542;28;20053;-71
2022/06/22 04:39:07;;;;;;;13.55;10.45;;;13.40;99.90;;;;;;5009644;28;20029;-71
2022/06/22 04:41:36;;;;;;;13.55;10.50;;;13.80;99.90;;;;;;5009870;28;20037;-71
2022/06/22 04:44:14;;;;;;;13.95;10.73;;;13.80;99.90;;;;;;5009367;28;20534;-71
2022/06/22 04:46:44;;;;;;;11.77;10.57;;;14.00;99.90;;;;;;4995552;28;20022;-71
2022/06/22 04:49:30;;;;;;;17.70;10.60;;;13.90;99.90;;;;;;5007854;28;20026;-71
2022/06/22 04:52:10;;;;;;;15.90;11.65;;;14.20;99.90;;;;;;4997368;28;20594;-71
2022/06/22 04:54:40;;;;;;;15.13;10.25;;;14.00;99.90;;;;;;5007639;28;20061;-71
2022/06/22 04:57:14;;;;;;;15.25;10.68;;;14.30;99.90;;;;;;5008582;28;20132;-71
2022/06/22 04:59:41;;;;;;;13.52;10.77;;;14.40;99.90;;;;;;5009217;28;20029;-70
2022/06/22 05:02:11;;;;;;;11.60;10.40;;;14.40;99.90;;;;;;5008920;28;20036;-71
2022/06/22 05:04:44;;;;;;;14.02;9.75;;;14.50;99.90;;;;;;5009418;28;20018;-71
2022/06/22 05:07:50;;;;;;;12.77;10.13;;;14.60;99.90;;;;;;5008427;28;20041;-71
2022/06/22 05:10:29;;;;;;;20.30;10.95;;;14.90;99.90;;;;;;5008662;28;20045;-71
2022/06/22 05:12:59;;;;;;;10.27;9.27;;;15.00;99.90;;;;;;5009037;28;20045;-71
2022/06/22 05:15:33;;;;;;;12.02;9.07;;;14.80;99.90;;;;;;5008553;28;20113;-71
2022/06/22 05:18:01;;;;;;;14.77;9.70;;;15.10;99.90;;;;;;5009103;28;20022;-71
2022/06/22 05:20:43;;;;;;;14.75;10.57;;;15.40;99.90;;;;;;5024094;28;20034;-71
2022/06/22 05:23:09;;;;;;;14.75;11.27;;;15.40;99.90;;;;;;5008846;28;20026;-71
2022/06/22 05:25:36;;;;;;;13.27;9.75;;;15.30;99.90;;;;;;5009086;28;20061;-71
2022/06/22 05:28:11;;;;;;;13.30;9.90;;;15.70;99.90;;;;;;5008987;28;20022;-71
2022/06/22 05:30:43;;;;;;;10.40;9.40;;;15.30;99.90;;;;;;5008851;28;20547;-71
2022/06/22 05:33:12;;;;;;;12.77;9.90;;;15.60;99.90;;;;;;5008728;28;20522;-71
2022/06/22 05:35:45;;;;;;;12.70;8.82;;;15.40;99.90;;;;;;5010680;28;20018;-71
2022/06/22 05:38:11;;;;;;;12.57;9.82;;;15.80;99.90;;;;;;5011704;28;20033;-71
2022/06/22 05:40:40;;;;;;;14.73;8.85;;;15.80;99.90;;;;;;5012671;28;20018;-71
2022/06/22 05:43:07;;;;;;;11.48;9.57;;;16.10;99.90;;;;;;5011728;28;20152;-71
2022/06/22 05:45:47;;;;;;;12.50;8.80;;;16.10;99.90;;;;;;5012536;28;20026;-71
2022/06/22 05:48:24;;;;;;;16.30;9.15;;;15.90;99.90;;;;;;5010028;28;20037;-71
2022/06/22 05:51:20;;;;;;;13.85;8.05;;;16.20;99.90;;;;;;5011060;28;20018;-71
2022/06/22 05:53:54;;;;;;;11.38;9.38;;;16.20;99.90;;;;;;5009385;28;20665;-71
2022/06/22 05:56:32;;;;;;;11.10;8.68;;;16.40;99.90;;;;;;5007436;28;20046;-71
2022/06/22 05:59:07;;;;;;;8.75;7.75;;;16.50;99.90;;;;;;5011205;28;20033;-71
2022/06/22 06:01:45;;;;;;;10.85;8.43;;;16.50;99.90;;;;;;5011720;28;20463;-71
2022/06/22 06:04:40;;;;;;;10.10;8.85;;;16.50;99.90;;;;;;5002912;28;20051;-71
2022/06/22 06:07:10;;;;;;;;;;;16.60;99.90;;;;;;5009631;28;20029;-72
2022/06/22 06:09:36;;;;;;;13.05;8.40;;;16.60;99.90;;;;;;5012005;28;19955;-72
2022/06/22 06:12:15;;;;;;;10.68;7.57;;;16.50;99.90;;;;;;5010965;28;20014;-71
2022/06/22 06:14:45;;;;;;;9.93;6.60;;;16.80;99.90;;;;;;5011848;28;20050;-72
2022/06/22 06:17:15;;;;;;;12.95;7.60;;;16.90;99.90;;;;;;5011282;28;20022;-71
2022/06/22 06:19:44;;;;;;;9.00;7.30;;;17.00;99.90;;;;;;5011897;28;20028;-71
2022/06/22 06:22:11;;;;;;;12.45;7.78;;;17.00;99.90;;;;;;5011270;28;20049;-71
2022/06/22 06:27:46;;;;;;;7.57;6.70;;;17.20;99.90;;;;;;5011173;28;20541;-71
2022/06/22 06:30:20;;;;;;;10.30;7.72;;;17.20;99.90;;;;;;5011144;28;20460;-71
2022/06/22 06:32:50;;;;;;;8.68;6.72;;;17.30;99.90;;;;;;5011384;28;20030;-72
2022/06/22 06:35:47;;;;;;;7.53;6.20;;;17.40;99.90;;;;;;5009768;28;20296;-72
2022/06/22 06:38:31;;;;;;;14.50;8.32;;;17.50;99.90;;;;;;5010510;28;20034;-71
2022/06/22 06:41:24;;;;;;;7.90;6.53;;;17.60;99.90;;;;;;5011179;28;20109;-71
2022/06/22 06:43:58;;;;;;;8.80;5.68;;;17.60;99.90;;;;;;5010934;28;20022;-71
2022/06/22 06:46:29;;;;;;;9.02;5.90;;;17.70;99.80;;;;;;5006002;28;20804;-69
2022/06/22 06:49:05;;;;;;;7.13;5.65;;;17.70;99.90;;;;;;5002075;28;20030;-70
2022/06/22 06:51:32;;;;;;;5.88;5.30;;;18.70;99.90;;;;;;5011013;28;20042;-70
2022/06/22 06:54:06;;;;;;;9.52;5.38;;;17.90;99.90;;;;;;5011181;28;20034;-70
2022/06/22 06:56:55;;;;;;;9.30;6.07;;;17.90;99.90;;;;;;5004083;28;20022;-70
2022/06/22 06:59:25;;;;;;;9.10;5.25;;;18.10;98.80;;;;;;5000313;28;20109;-70
2022/06/22 07:01:51;;;;;;;10.38;5.70;;;18.10;99.20;;;;;;5009807;28;20025;-69
2022/06/22 07:04:23;;;;;;;7.88;5.35;;;18.00;98.40;;;;;;5009952;28;20026;-70
2022/06/22 07:06:51;;;;;;;4.82;4.40;;;18.20;98.70;;;;;;5008695;28;20022;-70
2022/06/22 07:09:23;;;;;;;8.88;6.35;;;18.30;98.40;;;;;;5007245;28;20033;-71
2022/06/22 07:11:52;;;;;;;7.35;5.28;;;18.40;98.20;;;;;;5008718;28;20084;-70
2022/06/22 07:14:34;;;;;;;11.32;4.53;;;18.50;98.10;;;;;;5007720;28;20613;-70
2022/06/22 07:17:05;;;;;;;6.65;3.92;;;18.50;98.10;;;;;;5008129;28;20443;-70
2022/06/22 07:19:40;;;;;;;7.45;4.03;;;18.60;97.60;;;;;;5008221;28;20022;-71
2022/06/22 07:22:28;;;;;;;6.13;4.57;;;19.00;99.90;;;;;;5008497;28;20026;-71
2022/06/22 07:25:24;;;;;;;6.35;3.90;;;18.80;97.20;;;;;;5008417;28;20041;-71
2022/06/22 07:28:01;;;;;;;6.30;3.78;;;19.00;96.20;;;;;;5001941;28;20385;-70
2022/06/22 07:30:36;;;;;;;4.95;3.70;;;19.10;96.60;;;;;;5008479;28;20364;-70
2022/06/22 07:33:20;;;;;;;5.72;3.35;;;19.20;95.60;;;;;;5008140;28;20034;-72
2022/06/22 07:35:53;;;;;;;;;;;19.40;95.10;;;;;;5008376;28;20092;-71
2022/06/22 07:38:29;;;;;;;6.65;2.83;;;18.70;95.30;;;;;;5008525;28;19914;-73
2022/06/22 07:43:40;;;;;;;9.18;2.78;;;19.50;94.90;;;;;;5009675;28;20029;-72
2022/06/22 07:46:09;;;;;;;4.65;2.38;;;19.70;94.70;;;;;;5009206;28;20030;-71
2022/06/22 07:48:40;;;;;;;3.95;3.15;;;19.90;95.00;;;;;;5009741;28;20037;-72
2022/06/22 07:51:08;;;;;;;5.22;2.90;;;21.80;95.20;;;;;;5008667;28;20433;-71
2022/06/22 07:53:46;;;;;;;7.43;3.05;;;20.10;94.20;;;;;;5008682;28;20505;-71
2022/06/22 07:56:20;;;;;;;5.55;2.20;;;20.40;93.30;;;;;;5009270;28;20064;-71
2022/06/22 07:59:00;;;;;;;3.28;1.95;;;20.40;93.80;;;;;;5008252;28;20084;-71
2022/06/22 08:01:35;;;;;;;2.97;2.10;;;20.40;92.50;;;;;;5024258;28;20096;-71
2022/06/22 08:04:05;;;;;;;4.53;1.60;;;20.50;93.00;;;;;;5008827;28;20033;-71
2022/06/22 08:06:43;;;;;;;4.25;1.65;;;20.60;92.80;;;;;;5009257;28;20333;-72
2022/06/22 08:09:37;;;;;;;3.83;2.15;;;21.60;92.80;;;;;;5023186;28;20369;-71
2022/06/22 08:12:21;;;;;;;5.20;1.73;;;20.60;91.50;;;;;;5008385;28;20080;-71
2022/06/22 08:14:50;;;;;;;4.18;1.88;;;20.80;91.20;;;;;;5008621;28;20050;-71
2022/06/22 08:17:43;;;;;;;4.00;2.22;;;20.70;91.70;;;;;;5008626;28;20018;-71
2022/06/22 08:20:13;;;;;;;5.40;2.00;;;20.90;90.80;;;;;;5007408;28;20029;-72
2022/06/22 08:22:44;;;;;;;2.75;1.63;;;21.60;91.60;;;;;;5008535;28;20026;-71
2022/06/22 08:25:10;;;;;;;2.53;1.40;;;21.10;91.10;;;;;;5008787;28;20018;-71
2022/06/22 08:27:37;;;;;;;4.07;2.67;;;21.10;90.60;;;;;;5009083;28;20037;-71
2022/06/22 08:30:04;;;;;;;3.95;2.03;;;21.00;90.10;;;;;;5007776;28;20022;-70
2022/06/22 08:32:37;;;;;;;3.50;2.28;;;21.20;89.80;;;;;;5007585;28;20044;-70
2022/06/22 08:35:08;;;;;;;5.53;2.00;;;21.30;88.40;;;;;;5007466;28;20446;-71
2022/06/22 08:37:40;;;;;;;6.38;1.83;;;21.40;89.90;;;;;;5007467;28;20680;-71
2022/06/22 08:40:43;;;;;;;1.75;1.42;;;21.50;90.00;;;;;;5008543;28;20244;-71
2022/06/22 08:43:48;;;;;;;4.83;1.97;;;21.40;88.00;;;;;;5007393;28;20642;-71
2022/06/22 08:46:35;;;;;;;3.55;1.65;;;21.40;86.80;;;;;;5008378;28;20022;-71
2022/06/22 08:49:25;;;;;;;4.43;1.55;;;21.50;86.90;;;;;;5006897;28;20104;-71
2022/06/22 08:52:02;;;;;;;4.70;1.95;;;21.40;86.60;;;;;;5008445;28;20670;-71
2022/06/22 08:54:55;;;;;;;4.80;1.75;;;21.10;87.40;;;;;;5008032;28;20042;-70
2022/06/22 08:57:40;;;;;;;1.98;1.30;;;21.60;85.10;;;;;;5008078;28;20175;-70
2022/06/22 09:00:28;;;;;;;2.88;1.23;;;21.70;84.50;;;;;;5008582;28;20022;-70
2022/06/22 09:03:21;;;;;;;3.78;1.15;;;21.90;84.30;;;;;;5008558;28;20025;-69
2022/06/22 09:06:34;;;;;;;2.03;1.25;;;21.80;85.80;;;;;;5008147;28;20446;-70
2022/06/22 09:09:09;;;;;;;2.45;0.82;;;21.80;84.00;;;;;;5009573;28;20045;-70
2022/06/22 09:11:49;;;;;;;5.25;1.85;;;21.90;82.30;;;;;;5011776;28;20021;-70
2022/06/22 09:14:28;;;;;;;3.05;1.55;;;22.00;80.90;;;;;;5011634;28;20046;-70
2022/06/22 09:17:31;;;;;;;4.82;1.55;;;22.00;82.50;;;;;;4999284;28;20359;-69
2022/06/22 09:19:59;;;;;;;2.97;1.17;;;22.20;80.30;;;;;;5011821;28;20029;-70
2022/06/22 09:22:48;;;;;;;4.60;1.20;;;22.20;82.00;;;;;;5011611;28;20459;-70
2022/06/22 09:25:37;;;;;;;4.32;1.48;;;22.40;80.20;;;;;;5011987;28;20021;-70
2022/06/22 09:28:09;;;;;;;2.08;1.42;;;22.30;79.90;;;;;;5011748;28;20022;-70
2022/06/22 09:30:45;;;;;;;4.70;0.93;;;22.40;80.70;;;;;;5012190;28;20022;-70
2022/06/22 09:33:43;;;;;;;2.72;1.17;;;22.40;78.50;;;;;;5011512;28;20447;-70
2022/06/22 09:36:34;;;;;;;6.18;1.02;;;22.40;77.00;;;;;;5009790;28;20029;-70
2022/06/22 09:39:29;;;;;;;2.65;0.90;;;22.40;76.40;;;;;;5011376;28;20026;-69
2022/06/22 09:42:27;;;;;;;2.50;0.90;;;22.30;75.80;;;;;;5008622;28;20068;-69
2022/06/22 09:45:08;;;;;;;2.92;1.00;;;23.90;78.80;;;;;;5010309;28;20041;-69
2022/06/22 09:47:55;;;;;;;1.63;0.85;;;22.40;74.90;;;;;;5010631;28;20026;-69
2022/06/22 09:50:32;;;;;;;2.40;0.75;;;22.30;73.60;;;;;;5009846;28;20159;-69
2022/06/22 09:53:22;;;;;;;1.60;0.82;;;22.40;75.10;;;;;;5011615;28;20383;-69
2022/06/22 09:56:22;;;;;;;2.65;1.10;;;22.40;73.90;;;;;;5010788;28;20032;-69
2022/06/22 09:59:06;;;;;;;2.63;0.90;;;22.50;74.40;;;;;;5011087;28;20032;-69
2022/06/22 10:01:38;;;;;;;2.05;0.60;;;22.60;75.80;;;;;;5005295;28;20030;-70
2022/06/22 10:04:50;;;;;;;5.38;0.80;;;22.50;74.90;;;;;;5007849;28;20121;-70
2022/06/22 10:07:57;;;;;;;1.75;0.77;;;22.60;73.50;;;;;;4991267;28;20022;-70
2022/06/22 10:11:07;;;;;;;4.28;1.15;;;22.70;72.60;;;;;;5010800;28;20018;-69
2022/06/22 10:13:54;;;;;;;2.47;0.90;;;22.70;70.40;;;;;;4949361;29;20476;-69
2022/06/22 10:16:37;;;;;;;3.08;1.00;;;22.80;69.80;;;;;;4951626;28;20039;-70
2022/06/22 10:19:22;;;;;;;1.85;0.70;;;22.80;69.60;;;;;;4949979;28;20027;-70
2022/06/22 10:22:20;;;;;;;1.23;0.80;;;22.90;70.70;;;;;;4949897;28;20030;-70
2022/06/22 10:25:05;;;;;;;2.75;1.30;;;23.00;70.70;;;;;;4948442;28;20035;-70
2022/06/22 10:27:45;;;;;;;2.08;0.70;;;23.00;72.20;;;;;;4950244;28;20531;-70
2022/06/22 10:30:15;;;;;;;3.97;1.02;;;23.80;72.50;;;;;;4949945;28;20488;-70
2022/06/22 10:33:02;;;;;;;1.60;0.90;;;23.10;70.80;;;;;;4949987;28;20023;-70
2022/06/22 10:35:30;;;;;;;3.80;0.80;;;23.00;70.10;;;;;;4949775;28;20043;-70
2022/06/22 10:38:10;;;;;;;1.27;0.70;;;23.10;72.20;;;;;;4949986;28;20519;-70
2022/06/22 10:47:24;;;;;;;3.70;0.90;;;23.20;68.90;;;;;;4949871;28;20046;-70
2022/06/22 10:50:02;;;;;;;2.10;0.80;;;23.20;70.10;;;;;;4965475;28;20026;-69
2022/06/22 10:52:50;;;;;;;2.97;0.60;;;23.20;69.50;;;;;;5010272;28;20026;-68
2022/06/22 10:55:44;;;;;;;2.13;0.80;;;23.20;69.40;;;;;;4969388;28;20034;-69
2022/06/22 10:58:49;;;;;;;2.25;0.90;;;23.20;66.90;;;;;;5009490;28;20355;-69
2022/06/22 11:01:37;;;;;;;2.17;0.90;;;23.20;67.20;;;;;;5009870;28;20036;-69
2022/06/22 11:04:31;;;;;;;3.88;1.40;;;23.30;67.10;;;;;;5007992;28;20021;-69
2022/06/22 11:06:59;;;;;;;;;;;23.30;67.00;;;;;;5005962;28;20471;-69
2022/06/22 11:09:55;;;;;;;3.05;1.02;;;23.10;67.50;;;;;;5009744;28;19921;-69
2022/06/22 11:13:10;;;;;;;2.38;1.13;;;23.40;66.90;;;;;;5009650;28;20018;-69
2022/06/22 11:15:37;;;;;;;2.60;0.80;;;23.30;66.40;;;;;;4972513;28;20463;-69
2022/06/22 11:18:23;;;;;;;4.68;1.00;;;23.30;67.50;;;;;;5009213;28;20076;-69
2022/06/22 11:20:57;;;;;;;1.75;1.05;;;23.40;64.80;;;;;;5009822;28;20041;-69
2022/06/22 11:23:41;;;;;;;2.65;1.05;;;23.30;66.50;;;;;;5009308;28;20025;-69
2022/06/22 11:32:43;;;;;;;2.28;1.13;;;23.50;64.70;;;;;;5007618;28;20509;-68
2022/06/22 11:35:28;;;;;;;3.72;1.10;;;23.50;63.40;;;;;;5003802;28;20037;-69
2022/06/22 11:38:11;;;;;;;3.60;1.25;;;23.50;66.50;;;;;;5008730;28;20026;-69
2022/06/22 11:41:00;;;;;;;2.75;0.90;;;23.60;64.50;;;;;;5009011;28;20057;-69
2022/06/22 11:43:51;;;;;;;1.52;1.08;;;23.50;64.50;;;;;;5009196;28;20509;-69
2022/06/22 11:46:35;;;;;;;4.20;1.20;;;23.70;64.50;;;;;;5008242;28;20014;-70
2022/06/22 11:49:13;;;;;;;2.67;0.98;;;23.60;67.00;;;;;;5009249;28;20026;-70
2022/06/22 11:51:45;;;;;;;1.48;1.20;;;24.10;66.80;;;;;;5009261;28;20048;-69
2022/06/22 11:54:28;;;;;;;2.60;0.80;;;23.90;66.50;;;;;;5008805;28;20061;-70
2022/06/22 11:56:57;;;;;;;;;;;23.70;63.90;;;;;;5009909;28;20076;-71
2022/06/22 11:59:28;;;;;;;2.30;1.00;;;23.80;64.20;;;;;;5008883;28;19905;-71
2022/06/22 12:02:35;;;;;;;2.63;1.17;;;23.90;63.60;;;;;;5008455;28;20018;-70
2022/06/22 12:05:28;;;;;;;2.55;1.00;;;24.00;63.80;;;;;;4991358;28;20045;-70
2022/06/22 12:08:42;;;;;;;2.00;0.80;;;23.90;63.50;;;;;;5009098;28;20022;-71
2022/06/22 12:11:26;;;;;;;2.45;1.10;;;24.00;63.40;;;;;;4999232;28;20065;-69
2022/06/22 12:17:07;;;;;;;1.55;0.93;;;24.10;63.30;;;;;;5007992;28;20113;-71
2022/06/22 12:20:00;;;;;;;2.70;1.33;;;24.20;63.50;;;;;;5006514;28;20513;-70
2022/06/22 12:22:31;;;;;;;2.55;1.25;;;24.10;66.10;;;;;;5008887;28;20053;-71
2022/06/22 12:25:11;;;;;;;3.65;1.50;;;24.20;66.40;;;;;;5008446;28;20057;-70
2022/06/22 12:27:40;;;;;;;1.55;0.98;;;24.30;64.60;;;;;;5008361;28;20033;-70
2022/06/22 12:30:11;;;;;;;3.38;0.90;;;25.70;66.60;;;;;;5008107;28;20097;-69
2022/06/22 12:32:46;;;;;;;2.42;1.00;;;24.40;64.00;;;;;;5008772;28;20129;-70
2022/06/22 12:35:31;;;;;;;3.47;1.00;;;24.50;65.40;;;;;;5007553;28;20025;-70
2022/06/22 12:38:02;;;;;;;3.03;1.13;;;24.40;62.80;;;;;;5008940;28;20030;-69
2022/06/22 12:40:32;;;;;;;3.35;1.65;;;24.50;65.00;;;;;;5008495;28;20018;-70
2022/06/22 12:43:44;;;;;;;1.30;1.02;;;24.40;64.40;;;;;;5008638;28;20044;-70
2022/06/22 12:46:26;;;;;;;2.05;1.17;;;24.40;63.70;;;;;;5012413;28;20026;-70
2022/06/22 12:48:52;;;;;;;1.75;1.02;;;24.50;63.20;;;;;;5012606;28;20040;-70
2022/06/22 12:51:23;;;;;;;2.70;1.20;;;25.20;64.00;;;;;;5011717;28;20459;-70
2022/06/22 12:54:10;;;;;;;2.15;1.55;;;24.40;63.90;;;;;;5012454;28;20117;-69
2022/06/22 12:56:47;;;;;;;2.22;1.20;;;24.70;64.00;;;;;;5012120;28;20026;-70
2022/06/22 12:59:14;;;;;;;3.08;1.00;;;24.60;61.20;;;;;;5011550;28;20018;-70
2022/06/22 13:01:41;;;;;;;3.75;1.40;;;24.60;62.50;;;;;;5012477;28;20078;-70
2022/06/22 13:04:20;;;;;;;5.00;0.82;;;24.50;62.80;;;;;;5008449;28;20037;-71
2022/06/22 13:06:50;;;;;;;0.60;0.50;;;24.50;62.60;;;;;;5011877;28;20030;-70
2022/06/22 13:09:17;;;;;;;1.23;0.73;;;24.70;62.60;;;;;;5008257;28;20367;-70
2022/06/22 13:11:43;;;;;;;2.80;0.70;;;24.70;62.60;;;;;;5012089;28;20052;-71
2022/06/22 13:14:36;;;;;;;3.10;0.95;;;24.80;61.20;;;;;;5011290;28;20069;-71
2022/06/22 13:17:24;;;;;;;2.20;0.90;;;24.90;60.50;;;;;;5011700;28;20022;-71
2022/06/22 13:20:34;;;;;;;1.77;0.98;;;24.90;60.00;;;;;;5012251;28;20164;-69
2022/06/22 13:23:28;;;;;;;2.83;0.77;;;24.90;58.90;;;;;;4951183;29;20543;-71
2022/06/22 13:26:28;;;;;;;2.10;0.73;;;25.00;58.20;;;;;;4951538;29;20031;-70
2022/06/22 13:29:13;;;;;;;1.23;1.05;;;25.00;59.60;;;;;;4945077;29;20054;-71
2022/06/22 13:31:42;;;;;;;1.80;0.90;;;25.10;60.90;;;;;;4950272;29;20035;-70
2022/06/22 13:34:22;;;;;;;2.92;1.08;;;25.20;61.10;;;;;;4949342;29;20051;-70
2022/06/22 13:37:13;;;;;;;2.67;0.77;;;25.10;58.80;;;;;;4950957;29;20077;-68
2022/06/22 13:40:04;;;;;;;3.80;1.23;;;25.20;59.70;;;;;;4949573;29;20528;-68
2022/06/22 13:42:54;;;;;;;3.63;1.10;;;25.30;58.20;;;;;;4950500;29;20174;-69
2022/06/22 13:45:39;;;;;;;1.80;0.73;;;25.40;58.30;;;;;;4950676;29;20019;-70
2022/06/22 13:48:15;;;;;;;2.40;0.73;;;25.90;61.20;;;;;;4949958;28;20130;-70
2022/06/22 13:51:18;;;;;;;1.83;1.05;;;25.70;58.00;;;;;;4950353;28;20513;-69
2022/06/22 13:54:11;;;;;;;2.25;0.90;;;25.50;57.80;;;;;;4950450;29;20038;-70
2022/06/22 13:57:10;;;;;;;4.73;1.63;;;25.80;57.00;;;;;;4971424;28;20498;-70
2022/06/22 13:59:57;;;;;;;2.03;1.08;;;25.80;57.10;;;;;;4995890;28;20639;-70
2022/06/22 14:02:50;;;;;;;2.38;0.70;;;25.80;55.80;;;;;;4996166;28;20037;-69
2022/06/22 14:05:24;;;;;;;3.95;0.90;;;25.90;56.60;;;;;;5001019;28;20104;-69
2022/06/22 14:08:09;;;;;;;2.75;0.60;;;25.90;55.50;;;;;;5010689;28;20348;-69
2022/06/22 14:10:40;;;;;;;1.35;0.60;;;26.00;55.70;;;;;;5010450;28;20022;-69
2022/06/22 14:13:20;;;;;;;4.65;0.60;;;26.70;58.10;;;;;;5010801;28;20441;-69
2022/06/22 14:16:00;;;;;;;2.20;0.95;;;26.30;56.10;;;;;;5011386;28;20517;-70